Time;durP1;ratioP1;P1;durP2;ratioP2;P2;SDS_P1;SDS_P2;PMS_P1;PMS_P2;Temp;Humidity;BMP_temperature;BMP_pressure;BME280_temperature;BME280_humidity;BME280_pressure;Samples;Min_cycle;Max_cycle;Signal;HPM_P1;HPM_P2
2022/11/16 00:00:17;;;;;;;7.00;4.65;;;;;;;13.02;76.99;98203.25;341055;28;2180;-68
2022/11/16 00:00:29;;;;;;;6.82;4.55;;;;;;;13.04;76.92;98214.41;342184;28;1055;-69
2022/11/16 00:00:41;;;;;;;7.18;4.57;;;;;;;13.06;77.06;98211.66;342545;28;1062;-69
2022/11/16 00:01:00;;;;;;;6.78;4.57;;;;;;;13.04;76.86;98208.31;342328;28;1347;-69
2022/11/16 00:01:19;;;;;;;7.93;5.05;;;;;;;13.08;76.78;98213.25;342120;28;1210;-69
2022/11/16 00:01:32;;;;;;;9.73;6.57;;;;;;;13.11;76.59;98207.81;341129;29;1051;-68
2022/11/16 00:01:45;;;;;;;8.23;6.45;;;;;;;13.12;76.48;98208.66;340734;28;2147;-68
2022/11/16 00:01:57;;;;;;;7.60;5.45;;;;;;;13.11;76.68;98210.44;340810;29;1042;-68
2022/11/16 00:02:10;;;;;;;6.82;4.53;;;;;;;13.12;76.66;98214.72;340862;29;1190;-68
2022/11/16 00:02:22;;;;;;;6.57;4.40;;;;;;;13.12;76.68;98212.13;341654;28;1307;-69
2022/11/16 00:02:34;;;;;;;6.32;4.30;;;;;;;13.13;76.56;98218.16;342293;28;1112;-69
2022/11/16 00:02:47;;;;;;;6.82;4.57;;;;;;;13.14;76.40;98215.47;342209;28;1143;-69
2022/11/16 00:03:03;;;;;;;6.32;4.50;;;;;;;13.12;76.31;98214.72;342419;28;2028;-69
2022/11/16 00:03:15;;;;;;;6.80;4.30;;;;;;;13.12;76.23;98213.88;342807;28;2091;-70
2022/11/16 00:03:27;;;;;;;6.45;4.30;;;;;;;13.13;76.39;98211.16;342910;28;1481;-70
2022/11/16 00:03:39;;;;;;;5.65;4.70;;;;;;;13.14;76.54;98214.63;342411;28;1019;-70
2022/11/16 00:03:54;;;;;;;5.85;4.72;;;;;;;13.13;76.56;98216.38;342394;28;1563;-69
2022/11/16 00:04:08;;;;;;;7.35;4.60;;;;;;;13.15;76.46;98204.06;342253;28;1099;-69
2022/11/16 00:04:20;;;;;;;8.65;4.70;;;;;;;13.15;76.56;98214.50;342251;28;1418;-70
2022/11/16 00:04:32;;;;;;;7.95;4.60;;;;;;;13.08;76.30;98213.25;341021;28;1297;-69
2022/11/16 00:04:44;;;;;;;6.40;4.30;;;;;;;13.06;76.46;98215.13;341264;28;1106;-69
2022/11/16 00:04:56;;;;;;;6.60;4.03;;;;;;;13.04;76.61;98211.78;340978;28;1270;-68
2022/11/16 00:05:08;;;;;;;6.28;4.03;;;;;;;13.07;76.65;98213.34;341131;28;1059;-68
2022/11/16 00:05:20;;;;;;;5.40;4.00;;;;;;;13.07;76.70;98205.53;342367;28;1325;-68
2022/11/16 00:05:38;;;;;;;7.40;5.65;;;;;;;13.04;76.69;98205.72;342380;28;1161;-70
2022/11/16 00:05:57;;;;;;;7.97;6.00;;;;;;;13.07;76.80;98216.78;342362;28;1079;-70
2022/11/16 00:06:10;;;;;;;7.45;4.80;;;;;;;13.07;76.79;98210.75;342712;28;1238;-69
2022/11/16 00:06:22;;;;;;;7.60;4.57;;;;;;;13.08;76.71;98215.00;342825;28;1366;-70
2022/11/16 00:06:34;;;;;;;6.93;4.35;;;;;;;13.07;76.74;98216.78;342255;28;1072;-68
2022/11/16 00:06:48;;;;;;;5.85;4.30;;;;;;;13.08;76.62;98213.25;342375;28;1076;-68
2022/11/16 00:07:03;;;;;;;5.88;4.30;;;;;;;13.11;76.71;98217.44;342401;28;1245;-70
2022/11/16 00:07:15;;;;;;;5.53;4.22;;;;;;;13.12;76.60;98212.13;342412;28;1109;-69
2022/11/16 00:07:27;;;;;;;5.32;3.88;;;;;;;13.13;76.58;98211.16;342317;28;1100;-70
2022/11/16 00:07:39;;;;;;;6.05;3.65;;;;;;;13.16;76.51;98205.78;342078;28;1191;-69
2022/11/16 00:07:51;;;;;;;5.78;3.58;;;;;;;13.17;76.63;98207.41;342464;28;1028;-69
2022/11/16 00:08:03;;;;;;;5.63;3.70;;;;;;;13.19;76.64;98204.72;342415;28;1163;-69
2022/11/16 00:08:15;;;;;;;6.07;4.05;;;;;;;13.21;76.46;98205.44;342489;28;1067;-69
2022/11/16 00:08:29;;;;;;;5.55;4.00;;;;;;;13.24;76.44;98207.00;340969;29;1208;-68
2022/11/16 00:09:25;;;;;;;5.07;3.50;;;;;;;13.29;76.43;98202.34;340558;29;1238;-68
2022/11/16 00:09:38;;;;;;;5.88;3.70;;;;;;;13.28;76.23;98195.44;340889;28;1061;-68
2022/11/16 00:09:49;;;;;;;6.38;3.80;;;;;;;13.27;76.44;98206.81;341862;28;1166;-69
2022/11/16 00:10:01;;;;;;;5.82;3.80;;;;;;;13.28;76.29;98204.13;342016;28;1206;-70
2022/11/16 00:10:14;;;;;;;5.50;3.53;;;;;;;13.28;76.37;98203.25;341997;28;1064;-70
2022/11/16 00:10:26;;;;;;;4.95;3.40;;;;;;;13.27;76.40;98201.59;342188;28;1163;-70
2022/11/16 00:10:37;;;;;;;5.50;3.60;;;;;;;13.24;76.53;98196.56;342294;28;1107;-68
2022/11/16 00:10:49;;;;;;;5.70;3.85;;;;;;;13.22;76.43;98203.66;341958;28;1171;-68
2022/11/16 00:11:17;;;;;;;5.43;3.92;;;;;;;13.21;76.39;98204.63;342466;28;1209;-68
2022/11/16 00:11:29;;;;;;;5.68;3.83;;;;;;;13.22;76.43;98206.28;342513;28;1175;-70
2022/11/16 00:11:41;;;;;;;5.90;3.97;;;;;;;13.22;76.53;98204.53;342417;28;1184;-69
2022/11/16 00:11:56;;;;;;;6.45;3.90;;;;;;;13.24;76.58;98201.78;342101;28;1070;-69
2022/11/16 00:12:09;;;;;;;8.35;3.92;;;;;;;13.23;76.77;98207.97;342269;28;1059;-68
2022/11/16 00:12:21;;;;;;;7.78;4.15;;;;;;;13.23;76.56;98207.97;342354;28;1303;-68
2022/11/16 00:12:33;;;;;;;6.38;4.20;;;;;;;13.23;76.67;98210.56;342244;28;1226;-68
2022/11/16 00:12:45;;;;;;;5.68;3.92;;;;;;;13.23;76.80;98210.56;342552;28;1026;-68
2022/11/16 00:12:57;;;;;;;6.63;3.90;;;;;;;13.23;76.72;98200.13;342357;28;1193;-69
2022/11/16 00:13:09;;;;;;;6.40;3.90;;;;;;;13.25;76.83;98203.47;342606;28;1038;-68
2022/11/16 00:13:21;;;;;;;5.50;3.72;;;;;;;13.27;77.06;98201.59;342564;28;1070;-69
2022/11/16 00:13:34;;;;;;;5.80;3.58;;;;;;;13.26;77.11;98199.91;342823;28;1089;-69
2022/11/16 00:13:46;;;;;;;6.25;3.80;;;;;;;13.23;77.10;98205.34;343267;28;1324;-69
2022/11/16 00:13:58;;;;;;;5.97;3.95;;;;;;;13.23;77.23;98206.19;343909;28;752;-68
2022/11/16 00:14:10;;;;;;;4.95;3.83;;;;;;;13.18;76.84;98209.09;342907;28;1290;-68
2022/11/16 00:14:24;;;;;;;4.85;3.70;;;;;;;13.18;76.76;98206.50;342411;28;1234;-68
2022/11/16 00:14:37;;;;;;;6.63;3.80;;;;;;;13.21;76.82;98207.22;342334;28;1023;-69
2022/11/16 00:14:49;;;;;;;6.65;3.75;;;;;;;13.22;76.89;98203.66;341631;28;1950;-69
2022/11/16 00:15:02;;;;;;;6.40;3.75;;;;;;;13.19;77.10;98199.50;342363;28;1106;-70
2022/11/16 00:15:14;;;;;;;5.93;3.72;;;;;;;13.19;77.03;98200.31;342420;28;1039;-70
2022/11/16 00:15:26;;;;;;;6.72;3.67;;;;;;;13.22;77.08;98198.44;342465;28;1993;-70
2022/11/16 00:15:38;;;;;;;6.50;3.50;;;;;;;13.23;76.95;98200.97;341381;28;2033;-69
2022/11/16 00:15:57;;;;;;;5.53;3.50;;;;;;;13.25;77.11;98208.69;342161;28;1858;-69
2022/11/16 00:16:16;;;;;;;4.85;3.60;;;;;;;13.23;77.05;98206.19;341010;28;2130;-69
2022/11/16 00:16:28;;;;;;;5.20;3.78;;;;;;;13.25;76.97;98198.25;342146;28;1454;-69
2022/11/16 00:16:41;;;;;;;5.50;3.72;;;;;;;13.24;76.41;98202.66;342420;28;1240;-69
2022/11/16 00:16:53;;;;;;;4.65;3.47;;;;;;;13.27;76.88;98206.81;342750;28;1253;-69
2022/11/16 00:17:05;;;;;;;5.18;3.63;;;;;;;13.25;76.77;98200.88;342354;28;1026;-69
2022/11/16 00:17:17;;;;;;;6.00;3.75;;;;;;;13.21;76.68;98208.06;342441;28;1217;-68
2022/11/16 00:17:29;;;;;;;6.82;3.95;;;;;;;13.22;76.82;98203.66;342332;28;1170;-68
2022/11/16 00:17:41;;;;;;;6.90;3.78;;;;;;;13.24;76.90;98201.78;342138;28;1341;-69
2022/11/16 00:17:53;;;;;;;6.28;3.80;;;;;;;13.22;76.68;98204.53;342351;28;1198;-69
2022/11/16 00:18:04;;;;;;;6.38;3.60;;;;;;;13.23;76.90;98200.97;342215;28;1240;-69
2022/11/16 00:18:16;;;;;;;5.18;3.70;;;;;;;13.23;76.82;98200.97;342372;28;1323;-69
2022/11/16 00:18:29;;;;;;;5.35;3.70;;;;;;;13.19;76.37;98200.31;342231;28;1159;-69
2022/11/16 00:18:41;;;;;;;5.50;3.60;;;;;;;13.21;76.68;98202.84;342430;28;1109;-69
2022/11/16 00:18:59;;;;;;;5.38;3.65;;;;;;;13.19;76.91;98196.88;342328;28;1023;-70
2022/11/16 00:19:11;;;;;;;6.93;3.97;;;;;;;13.21;76.98;98202.00;342544;28;1241;-69
2022/11/16 00:19:25;;;;;;;7.20;3.95;;;;;;;13.23;77.00;98200.13;342550;28;1637;-70
2022/11/16 00:19:37;;;;;;;7.35;3.80;;;;;;;13.25;76.94;98193.03;342177;28;1035;-70
2022/11/16 00:19:49;;;;;;;5.90;3.60;;;;;;;13.26;76.75;98199.91;341959;28;1828;-70
2022/11/16 00:20:01;;;;;;;6.40;3.40;;;;;;;13.27;77.03;98192.00;340820;28;1158;-69
2022/11/16 00:20:12;;;;;;;5.80;3.75;;;;;;;13.28;77.09;98198.91;341198;28;1750;-69
2022/11/16 00:20:24;;;;;;;6.15;4.07;;;;;;;13.29;77.04;98192.75;341975;28;1730;-68
2022/11/16 00:20:38;;;;;;;6.80;4.15;;;;;;;13.31;76.95;98192.66;342267;28;1233;-68
2022/11/16 00:20:50;;;;;;;7.05;4.13;;;;;;;13.32;77.09;98196.94;342314;28;1171;-68
2022/11/16 00:21:04;;;;;;;7.07;4.32;;;;;;;13.31;77.37;98192.66;342377;28;1262;-68
2022/11/16 00:21:16;;;;;;;7.35;4.57;;;;;;;13.31;77.47;98198.72;342004;28;1283;-69
2022/11/16 00:21:29;;;;;;;7.13;4.68;;;;;;;13.28;77.73;98203.25;342155;28;1192;-68
2022/11/16 00:21:41;;;;;;;7.72;4.55;;;;;;;13.27;77.76;98199.00;342111;28;1078;-68
2022/11/16 00:21:53;;;;;;;8.20;4.97;;;;;;;13.29;77.70;98200.59;342549;28;726;-69
2022/11/16 00:22:05;;;;;;;8.48;5.15;;;;;;;13.29;77.55;98197.13;342638;28;1252;-69
2022/11/16 00:22:17;;;;;;;7.95;5.07;;;;;;;13.31;77.54;98195.28;341849;28;1193;-69
2022/11/16 00:22:29;;;;;;;7.70;4.95;;;;;;;13.32;77.61;98194.31;341883;28;2188;-69
2022/11/16 00:22:41;;;;;;;7.30;4.80;;;;;;;13.34;77.66;98198.53;342449;28;1262;-70
2022/11/16 00:22:53;;;;;;;6.75;4.50;;;;;;;13.34;77.42;98198.53;342527;28;1043;-69
2022/11/16 00:23:04;;;;;;;6.80;4.50;;;;;;;13.35;77.59;98194.13;342428;28;1051;-68
2022/11/16 00:23:17;;;;;;;7.65;4.55;;;;;;;13.35;77.71;98192.34;342371;28;2058;-68
2022/11/16 00:23:29;;;;;;;7.70;4.78;;;;;;;13.35;77.71;98191.50;342256;28;1335;-68
2022/11/16 00:23:40;;;;;;;8.07;4.85;;;;;;;13.32;77.57;98192.56;342533;28;1190;-68
2022/11/16 00:23:53;;;;;;;9.40;4.97;;;;;;;13.33;77.67;98196.00;342068;28;1180;-68
2022/11/16 00:24:05;;;;;;;9.48;4.97;;;;;;;13.32;77.76;98191.72;342505;28;1027;-68
2022/11/16 00:24:19;;;;;;;8.32;4.90;;;;;;;13.32;77.80;98199.53;342142;28;1369;-68
2022/11/16 00:24:31;;;;;;;6.88;4.60;;;;;;;13.31;77.78;98197.88;340846;28;2144;-69
2022/11/16 00:24:43;;;;;;;6.93;4.63;;;;;;;13.31;77.93;98196.09;341035;29;1052;-69
2022/11/16 00:24:55;;;;;;;8.45;4.97;;;;;;;13.30;77.80;98197.06;340794;28;1071;-69
2022/11/16 00:25:07;;;;;;;8.13;4.90;;;;;;;13.31;77.80;98198.72;341304;28;1904;-68
2022/11/16 00:25:19;;;;;;;7.40;4.95;;;;;;;13.33;77.82;98196.00;342488;28;1702;-69
2022/11/16 00:25:33;;;;;;;7.88;5.38;;;;;;;13.33;77.72;98201.22;342223;28;1213;-68
2022/11/16 00:25:45;;;;;;;8.15;5.05;;;;;;;13.34;77.86;98202.88;342394;28;1076;-68
2022/11/16 00:26:08;;;;;;;6.13;4.35;;;;;;;13.34;77.78;98203.75;342438;28;1047;-68
2022/11/16 00:26:20;;;;;;;7.18;5.07;;;;;;;13.35;77.93;98201.97;341136;28;1712;-68
2022/11/16 00:26:32;;;;;;;7.68;5.40;;;;;;;13.36;77.78;98206.22;342003;28;1353;-69
2022/11/16 00:26:45;;;;;;;6.88;5.03;;;;;;;13.36;78.04;98198.38;342208;28;1152;-69
2022/11/16 00:26:57;;;;;;;6.90;4.80;;;;;;;13.36;78.01;98201.88;342194;28;1273;-70
2022/11/16 00:27:09;;;;;;;7.22;4.70;;;;;;;13.39;77.96;98203.41;341865;28;1681;-70
2022/11/16 00:27:21;;;;;;;7.10;4.82;;;;;;;13.38;77.98;98204.34;342429;28;1305;-70
2022/11/16 00:27:32;;;;;;;6.95;4.93;;;;;;;13.36;77.85;98207.06;342316;28;1116;-69
2022/11/16 00:27:44;;;;;;;7.88;4.88;;;;;;;13.36;77.86;98201.88;342220;28;1254;-68
2022/11/16 00:27:56;;;;;;;8.60;4.93;;;;;;;13.38;77.84;98204.34;342185;28;1075;-69
2022/11/16 00:28:09;;;;;;;9.10;4.90;;;;;;;13.38;77.77;98201.72;342155;28;1313;-69
2022/11/16 00:28:20;;;;;;;8.77;4.78;;;;;;;13.38;77.57;98201.72;341671;28;2025;-69
2022/11/16 00:28:33;;;;;;;7.70;4.85;;;;;;;13.38;77.64;98205.19;342804;28;1063;-69
2022/11/16 00:28:45;;;;;;;8.38;5.10;;;;;;;13.39;77.73;98206.03;341331;28;2022;-69
2022/11/16 00:28:57;;;;;;;8.45;5.22;;;;;;;13.36;77.49;98208.84;342400;28;1079;-69
2022/11/16 00:29:23;;;;;;;9.07;5.18;;;;;;;13.32;77.75;98212.59;342216;28;1287;-68
2022/11/16 00:29:35;;;;;;;7.03;5.10;;;;;;;13.31;78.14;98209.16;342338;28;1059;-68
2022/11/16 00:29:47;;;;;;;7.03;5.10;;;;;;;13.29;77.89;98207.56;342499;28;1056;-68
2022/11/16 00:29:59;;;;;;;6.93;5.00;;;;;;;13.29;78.06;98215.38;342586;28;1047;-69
2022/11/16 00:30:11;;;;;;;6.80;5.15;;;;;;;13.29;78.21;98210.16;342338;28;1199;-69
2022/11/16 00:30:23;;;;;;;8.30;5.03;;;;;;;13.29;77.98;98210.16;341556;28;1797;-68
2022/11/16 00:30:35;;;;;;;8.68;5.00;;;;;;;13.30;78.04;98206.63;342086;28;1201;-68
2022/11/16 00:30:56;;;;;;;8.15;5.18;;;;;;;13.25;77.79;98208.69;342268;28;1167;-68
2022/11/16 00:31:09;;;;;;;6.97;4.97;;;;;;;13.25;77.99;98206.09;342401;28;1023;-68
2022/11/16 00:31:22;;;;;;;6.95;4.80;;;;;;;13.25;77.95;98209.53;342302;28;1293;-68
2022/11/16 00:31:34;;;;;;;8.68;5.18;;;;;;;13.25;78.23;98208.69;342240;28;1244;-68
2022/11/16 00:31:47;;;;;;;8.27;5.13;;;;;;;13.27;78.21;98206.81;342502;28;1209;-68
2022/11/16 00:31:58;;;;;;;8.27;5.22;;;;;;;13.28;78.16;98203.25;341864;28;1669;-68
2022/11/16 00:32:11;;;;;;;7.88;5.07;;;;;;;13.25;77.95;98208.69;341428;28;1464;-68
2022/11/16 00:32:23;;;;;;;6.47;4.55;;;;;;;13.24;77.85;98209.63;341811;28;1250;-68
2022/11/16 00:32:35;;;;;;;8.00;4.63;;;;;;;13.27;77.94;98209.44;343462;28;1182;-68
2022/11/16 00:32:46;;;;;;;8.85;4.88;;;;;;;13.23;77.88;98210.56;341553;28;2007;-67
2022/11/16 00:32:59;;;;;;;8.82;4.75;;;;;;;13.24;77.77;98207.88;341929;28;1352;-67
2022/11/16 00:33:15;;;;;;;7.47;4.50;;;;;;;13.26;77.84;98210.34;340995;28;1076;-69
2022/11/16 00:33:27;;;;;;;6.55;4.32;;;;;;;13.25;77.61;98208.69;342065;28;2439;-68
2022/11/16 00:33:39;;;;;;;6.30;4.40;;;;;;;13.22;77.72;98203.66;342293;28;1218;-68
2022/11/16 00:33:51;;;;;;;6.68;4.50;;;;;;;13.24;77.69;98207.00;342338;28;1101;-68
2022/11/16 00:34:03;;;;;;;6.93;4.22;;;;;;;13.24;77.68;98212.22;342055;28;1160;-68
2022/11/16 00:34:16;;;;;;;6.10;4.03;;;;;;;13.24;77.62;98202.66;342181;28;1296;-68
2022/11/16 00:34:28;;;;;;;5.53;4.10;;;;;;;13.26;77.69;98200.78;340820;29;1112;-68
2022/11/16 00:34:40;;;;;;;5.63;4.30;;;;;;;13.27;77.40;98205.03;340807;29;1233;-68
2022/11/16 00:34:52;;;;;;;5.97;4.30;;;;;;;13.29;77.56;98204.94;340762;28;1738;-68
2022/11/16 00:35:04;;;;;;;7.47;4.45;;;;;;;13.26;77.68;98203.38;342711;28;1717;-68
2022/11/16 00:35:16;;;;;;;7.82;4.60;;;;;;;13.26;77.62;98205.13;341478;28;2011;-69
2022/11/16 00:35:28;;;;;;;5.43;4.28;;;;;;;13.28;77.74;98203.25;341525;28;2050;-68
2022/11/16 00:35:40;;;;;;;5.15;4.22;;;;;;;13.26;77.78;98200.78;342461;28;1059;-68
2022/11/16 00:35:52;;;;;;;5.78;4.30;;;;;;;13.27;77.94;98201.59;342403;28;1073;-67
2022/11/16 00:36:07;;;;;;;6.82;4.60;;;;;;;13.23;77.97;98200.97;342472;28;1861;-67
2022/11/16 00:36:19;;;;;;;6.47;4.47;;;;;;;13.22;78.12;98203.66;341621;28;1753;-68
2022/11/16 00:36:30;;;;;;;6.13;4.43;;;;;;;13.23;78.14;98200.97;342275;28;1272;-69
2022/11/16 00:36:43;;;;;;;5.82;4.20;;;;;;;13.24;78.10;98201.78;342377;28;1066;-69
2022/11/16 00:36:55;;;;;;;5.15;3.80;;;;;;;13.26;78.09;98205.13;342309;28;1349;-68
2022/11/16 00:37:07;;;;;;;5.68;4.00;;;;;;;13.27;78.07;98202.44;342427;28;1275;-70
2022/11/16 00:37:19;;;;;;;6.10;4.10;;;;;;;13.28;78.13;98200.66;342134;28;2041;-69
2022/11/16 00:37:31;;;;;;;6.30;4.25;;;;;;;13.27;77.97;98201.59;342568;28;1071;-69
2022/11/16 00:37:43;;;;;;;6.63;3.87;;;;;;;13.24;77.60;98201.78;342647;28;1051;-69
2022/11/16 00:37:54;;;;;;;7.22;4.20;;;;;;;13.24;77.73;98199.19;342215;28;1015;-68
2022/11/16 00:38:06;;;;;;;7.47;4.65;;;;;;;13.23;77.72;98200.13;342038;28;1024;-69
2022/11/16 00:38:19;;;;;;;6.57;4.60;;;;;;;13.22;77.82;98198.44;341918;28;1792;-70
2022/11/16 00:38:31;;;;;;;6.53;4.00;;;;;;;13.23;77.44;98194.91;341469;28;1673;-69
2022/11/16 00:38:43;;;;;;;6.57;3.83;;;;;;;13.23;77.96;98200.13;340992;29;1062;-68
2022/11/16 00:38:55;;;;;;;6.63;4.00;;;;;;;13.23;77.69;98200.13;340871;29;1059;-69
2022/11/16 00:39:13;;;;;;;6.03;3.83;;;;;;;13.22;77.70;98198.44;340676;29;1104;-69
2022/11/16 00:39:24;;;;;;;4.65;3.63;;;;;;;13.22;77.94;98198.44;341757;28;1986;-69
2022/11/16 00:39:36;;;;;;;5.10;3.55;;;;;;;13.20;77.66;98195.97;342427;28;1132;-69
2022/11/16 00:39:48;;;;;;;5.97;3.58;;;;;;;13.21;77.46;98204.63;342361;28;1059;-69
2022/11/16 00:40:00;;;;;;;6.25;3.60;;;;;;;13.19;77.83;98196.88;342425;28;1179;-69
2022/11/16 00:40:12;;;;;;;6.18;3.80;;;;;;;13.18;77.79;98193.47;341532;28;1198;-69
2022/11/16 00:40:24;;;;;;;5.57;3.70;;;;;;;13.19;77.82;98191.66;341307;28;1057;-69
2022/11/16 00:40:36;;;;;;;5.60;3.63;;;;;;;13.17;77.83;98189.16;341335;28;1621;-69
2022/11/16 00:40:48;;;;;;;4.85;3.55;;;;;;;13.15;77.93;98192.81;342576;28;1644;-70
2022/11/16 00:41:00;;;;;;;5.15;3.47;;;;;;;13.14;78.11;98194.59;340931;28;1188;-69
2022/11/16 00:41:13;;;;;;;5.63;3.53;;;;;;;13.12;78.02;98188.66;341084;28;1091;-70
2022/11/16 00:41:24;;;;;;;5.38;3.33;;;;;;;13.13;77.88;98187.69;342279;28;1708;-68
2022/11/16 00:41:36;;;;;;;4.82;3.13;;;;;;;13.12;78.29;98188.66;342252;28;1574;-68
2022/11/16 00:41:48;;;;;;;4.10;3.05;;;;;;;13.11;78.31;98192.19;341073;28;1015;-68
2022/11/16 00:42:00;;;;;;;4.43;3.20;;;;;;;13.12;78.38;98193.00;340946;28;1779;-68
2022/11/16 00:42:12;;;;;;;5.18;3.30;;;;;;;13.11;78.37;98192.19;342694;28;1638;-68
2022/11/16 00:42:24;;;;;;;5.38;3.15;;;;;;;13.12;78.38;98191.25;343550;28;1183;-68
2022/11/16 00:42:36;;;;;;;5.40;3.10;;;;;;;13.11;78.37;98192.19;343321;28;1201;-68
2022/11/16 00:42:48;;;;;;;4.80;3.20;;;;;;;13.12;78.37;98193.88;343506;28;1268;-68
2022/11/16 00:43:00;;;;;;;4.10;3.00;;;;;;;13.12;78.38;98187.78;344017;28;1078;-68
2022/11/16 00:43:12;;;;;;;4.35;2.92;;;;;;;13.13;78.23;98185.09;343816;28;1099;-69
2022/11/16 00:43:24;;;;;;;5.90;3.10;;;;;;;13.13;78.36;98192.09;342369;28;1172;-69
2022/11/16 00:43:36;;;;;;;6.30;3.10;;;;;;;13.13;78.15;98189.47;342520;28;1211;-69
2022/11/16 00:43:48;;;;;;;5.55;3.00;;;;;;;13.12;78.13;98188.66;342363;28;1047;-70
2022/11/16 00:44:00;;;;;;;4.57;2.95;;;;;;;13.13;78.08;98187.69;342340;28;1841;-69
2022/11/16 00:44:13;;;;;;;5.40;2.90;;;;;;;13.13;78.06;98190.31;342029;28;1790;-70
2022/11/16 00:44:25;;;;;;;5.40;3.00;;;;;;;13.13;77.84;98187.69;342756;28;1310;-68
2022/11/16 00:44:36;;;;;;;5.25;2.90;;;;;;;13.15;77.79;98187.59;341464;28;1969;-68
2022/11/16 00:44:48;;;;;;;5.60;2.90;;;;;;;13.17;77.88;98185.72;342359;28;2000;-69
2022/11/16 00:45:00;;;;;;;4.75;2.90;;;;;;;13.17;77.72;98186.56;342296;28;1124;-69
2022/11/16 00:45:12;;;;;;;5.35;3.10;;;;;;;13.18;77.84;98183.03;341846;28;2745;-69
2022/11/16 00:45:24;;;;;;;4.72;3.08;;;;;;;13.17;77.85;98186.56;342316;28;1798;-69
2022/11/16 00:45:38;;;;;;;4.75;3.03;;;;;;;13.19;77.53;98184.69;342269;28;1060;-69
2022/11/16 00:45:50;;;;;;;4.38;2.92;;;;;;;13.20;77.49;98190.75;342313;28;1234;-69
2022/11/16 00:46:03;;;;;;;6.35;3.13;;;;;;;13.21;77.53;98183.75;342592;28;1095;-69
2022/11/16 00:46:15;;;;;;;6.50;3.05;;;;;;;13.23;77.51;98184.47;342614;28;1055;-69
2022/11/16 00:46:26;;;;;;;5.25;3.08;;;;;;;13.24;77.31;98187.00;342032;28;1498;-69
2022/11/16 00:46:39;;;;;;;4.80;3.03;;;;;;;13.26;77.51;98186.88;342431;28;1296;-68
2022/11/16 00:46:51;;;;;;;5.63;3.13;;;;;;;13.27;77.28;98180.72;342221;28;1064;-69
2022/11/16 00:47:03;;;;;;;7.05;2.95;;;;;;;13.28;77.24;98182.38;342770;28;1070;-69
2022/11/16 00:47:15;;;;;;;6.07;2.83;;;;;;;13.27;77.36;98180.72;339603;29;1045;-69
2022/11/16 00:47:27;;;;;;;5.18;3.00;;;;;;;13.28;77.44;98183.25;341375;29;1053;-68
2022/11/16 00:47:39;;;;;;;5.45;3.00;;;;;;;13.30;77.45;98188.38;341440;28;1736;-68
2022/11/16 00:47:50;;;;;;;4.10;2.90;;;;;;;13.30;77.27;98190.97;342690;28;1968;-68
2022/11/16 00:48:09;;;;;;;3.78;2.78;;;;;;;13.29;77.33;98178.84;342633;28;1405;-68
2022/11/16 00:48:21;;;;;;;4.03;2.90;;;;;;;13.29;77.24;98184.06;341891;28;2148;-68
2022/11/16 00:48:33;;;;;;;4.00;2.80;;;;;;;13.27;77.30;98181.56;341565;28;1042;-70
2022/11/16 00:48:45;;;;;;;3.65;2.70;;;;;;;13.28;77.22;98188.47;341120;29;1095;-69
2022/11/16 00:48:57;;;;;;;3.40;2.72;;;;;;;13.29;77.10;98186.69;341319;28;1340;-69
2022/11/16 00:49:09;;;;;;;3.60;2.75;;;;;;;13.29;77.31;98189.28;341266;28;1105;-69
2022/11/16 00:49:21;;;;;;;4.97;2.60;;;;;;;13.27;77.27;98181.56;342127;28;1286;-70
2022/11/16 00:49:33;;;;;;;5.22;2.58;;;;;;;13.29;77.17;98186.69;342149;28;1570;-69
2022/11/16 00:49:45;;;;;;;5.15;2.80;;;;;;;13.25;77.14;98188.66;341997;28;1538;-69
2022/11/16 00:49:57;;;;;;;3.38;2.70;;;;;;;13.27;77.15;98191.16;342383;28;1018;-69
2022/11/16 00:50:09;;;;;;;3.13;2.72;;;;;;;13.25;77.18;98183.44;342231;28;1283;-70
2022/11/16 00:50:21;;;;;;;3.38;2.60;;;;;;;13.27;77.03;98185.94;341942;28;1660;-68
2022/11/16 00:50:33;;;;;;;3.45;2.60;;;;;;;13.27;77.02;98186.78;342154;28;1059;-68
2022/11/16 00:50:45;;;;;;;3.75;2.72;;;;;;;13.27;77.09;98181.56;343941;28;1047;-68
2022/11/16 00:50:57;;;;;;;3.72;2.85;;;;;;;13.27;77.13;98184.16;343333;28;1078;-68
2022/11/16 00:51:09;;;;;;;3.65;2.85;;;;;;;13.28;76.96;98182.38;344792;28;1031;-68
2022/11/16 00:51:21;;;;;;;3.42;2.80;;;;;;;13.27;76.75;98184.16;344749;28;1148;-68
2022/11/16 00:51:34;;;;;;;4.07;2.77;;;;;;;13.30;76.97;98185.75;344656;28;1151;-68
2022/11/16 00:51:46;;;;;;;4.28;2.80;;;;;;;13.28;76.96;98183.25;344753;28;1082;-68
2022/11/16 00:51:58;;;;;;;3.55;2.60;;;;;;;13.29;76.89;98189.28;344010;28;1820;-68
2022/11/16 00:52:10;;;;;;;3.28;2.40;;;;;;;13.30;77.03;98180.53;344941;28;1315;-68
2022/11/16 00:52:22;;;;;;;3.53;2.50;;;;;;;13.30;76.90;98183.16;344906;28;1283;-68
2022/11/16 00:52:34;;;;;;;3.40;2.63;;;;;;;13.29;76.68;98186.69;343613;28;1331;-68
2022/11/16 00:52:45;;;;;;;3.60;2.67;;;;;;;13.30;76.76;98180.53;343758;28;1274;-68
2022/11/16 00:52:57;;;;;;;4.20;2.53;;;;;;;13.32;76.85;98173.44;343534;28;1195;-68
2022/11/16 00:53:12;;;;;;;4.18;2.58;;;;;;;13.25;76.97;98177.38;343512;28;1288;-68
2022/11/16 00:53:24;;;;;;;3.28;2.53;;;;;;;13.27;77.23;98175.50;342172;28;1927;-68
2022/11/16 00:53:36;;;;;;;3.10;2.55;;;;;;;13.27;77.16;98181.56;342551;28;1653;-68
2022/11/16 00:53:48;;;;;;;3.13;2.60;;;;;;;13.29;77.19;98176.25;343113;28;1275;-69
2022/11/16 00:54:00;;;;;;;4.80;2.60;;;;;;;13.27;77.31;98180.72;342551;28;1203;-69
2022/11/16 00:54:12;;;;;;;4.72;2.58;;;;;;;13.26;77.67;98174.69;342430;28;1165;-69
2022/11/16 00:54:24;;;;;;;4.15;2.47;;;;;;;13.24;77.39;98178.31;342315;28;1542;-69
2022/11/16 00:54:36;;;;;;;3.75;2.40;;;;;;;13.26;77.49;98184.25;341546;28;1160;-69
2022/11/16 00:54:48;;;;;;;3.95;2.47;;;;;;;13.26;77.37;98181.66;342231;28;1052;-68
2022/11/16 00:55:00;;;;;;;3.13;2.40;;;;;;;13.25;77.36;98178.22;342230;28;1051;-68
2022/11/16 00:55:11;;;;;;;2.67;2.30;;;;;;;13.26;77.37;98179.91;342318;28;1044;-68
2022/11/16 00:55:23;;;;;;;3.60;2.40;;;;;;;13.27;77.42;98175.50;342217;28;1770;-68
2022/11/16 00:55:36;;;;;;;4.57;2.47;;;;;;;13.26;77.49;98173.81;343149;28;1854;-68
2022/11/16 00:55:48;;;;;;;4.90;2.50;;;;;;;13.27;77.29;98170.28;342456;28;1334;-68
2022/11/16 00:56:00;;;;;;;4.55;2.60;;;;;;;13.27;77.20;98176.34;343466;28;1099;-68
2022/11/16 00:56:12;;;;;;;4.40;2.50;;;;;;;13.28;77.30;98171.94;342764;28;1428;-67
2022/11/16 00:56:24;;;;;;;3.10;2.40;;;;;;;13.29;77.18;98179.72;341889;28;1930;-67
2022/11/16 00:56:36;;;;;;;3.80;2.42;;;;;;;13.29;77.18;98176.25;342489;28;1055;-67
2022/11/16 00:56:48;;;;;;;4.20;2.67;;;;;;;13.30;77.28;98176.19;341561;28;1083;-68
2022/11/16 00:57:00;;;;;;;4.15;2.75;;;;;;;13.28;77.30;98177.16;342201;28;1909;-68
2022/11/16 00:57:12;;;;;;;5.22;2.95;;;;;;;13.29;77.36;98174.50;342277;28;1967;-68
2022/11/16 00:57:24;;;;;;;4.40;2.65;;;;;;;13.30;77.28;98177.94;341926;28;1970;-68
2022/11/16 00:57:36;;;;;;;4.45;2.25;;;;;;;13.31;77.31;98177.00;341910;28;2055;-68
2022/11/16 00:57:48;;;;;;;4.40;2.40;;;;;;;13.32;77.28;98173.44;342498;28;1169;-68
2022/11/16 00:58:00;;;;;;;3.83;2.40;;;;;;;13.33;77.29;98169.91;342765;28;1049;-68
2022/11/16 00:58:12;;;;;;;3.20;2.40;;;;;;;13.34;77.43;98177.63;342471;28;1088;-68
2022/11/16 00:58:24;;;;;;;3.30;2.50;;;;;;;13.35;77.32;98181.06;342415;28;1305;-68
2022/11/16 00:58:36;;;;;;;3.60;2.63;;;;;;;13.35;77.37;98178.47;343327;28;1054;-68
2022/11/16 00:58:48;;;;;;;3.47;2.47;;;;;;;13.35;77.37;98175.84;342414;28;1054;-67
2022/11/16 00:59:00;;;;;;;3.67;2.42;;;;;;;13.36;77.30;98180.13;341999;28;1689;-67
2022/11/16 00:59:12;;;;;;;3.10;2.30;;;;;;;13.37;77.29;98176.59;342294;28;1628;-67
2022/11/16 00:59:24;;;;;;;3.15;2.30;;;;;;;13.35;77.15;98173.25;341973;28;1984;-67
2022/11/16 00:59:36;;;;;;;3.03;2.50;;;;;;;13.35;77.17;98170.63;342368;28;2218;-69
2022/11/16 00:59:48;;;;;;;3.75;2.70;;;;;;;13.36;77.23;98170.53;342644;28;1046;-69
2022/11/16 01:00:00;;;;;;;3.90;2.70;;;;;;;13.35;77.06;98171.47;342044;28;2320;-69
2022/11/16 01:00:12;;;;;;;4.15;2.65;;;;;;;13.36;76.95;98175.75;342934;28;1821;-69
2022/11/16 01:00:24;;;;;;;4.40;2.70;;;;;;;13.35;77.09;98168.03;343733;28;1354;-69
2022/11/16 01:00:37;;;;;;;4.10;2.78;;;;;;;13.34;77.10;98171.56;343710;28;1951;-68
2022/11/16 01:00:49;;;;;;;4.05;2.90;;;;;;;13.35;77.10;98168.03;343762;28;1051;-69
2022/11/16 01:01:05;;;;;;;3.92;2.92;;;;;;;13.32;77.06;98168.22;343642;28;1150;-68
2022/11/16 01:01:18;;;;;;;4.45;2.65;;;;;;;13.32;77.13;98168.22;342433;28;1327;-68
2022/11/16 01:01:29;;;;;;;4.90;2.70;;;;;;;13.32;77.24;98169.09;343849;28;1087;-68
2022/11/16 01:01:41;;;;;;;4.40;2.78;;;;;;;13.32;77.18;98166.47;343745;28;1051;-68